sensor_id;sensor_type;location;lat;lon;timestamp;temperature;humidity
22795;DHT22;11564;50.920;11.612;2022-07-21T00:00:38;25.10;66.30
22795;DHT22;11564;50.920;11.612;2022-07-21T00:03:04;25.00;66.50
22795;DHT22;11564;50.920;11.612;2022-07-21T00:05:30;24.90;66.70
22795;DHT22;11564;50.920;11.612;2022-07-21T00:07:55;24.90;67.00
22795;DHT22;11564;50.920;11.612;2022-07-21T00:10:23;24.80;67.00
22795;DHT22;11564;50.920;11.612;2022-07-21T00:12:50;24.80;67.80
22795;DHT22;11564;50.920;11.612;2022-07-21T00:15:17;24.80;67.30
22795;DHT22;11564;50.920;11.612;2022-07-21T00:17:43;24.70;67.40
22795;DHT22;11564;50.920;11.612;2022-07-21T00:20:10;24.70;67.70
22795;DHT22;11564;50.920;11.612;2022-07-21T00:22:37;24.60;67.80
22795;DHT22;11564;50.920;11.612;2022-07-21T00:25:05;24.60;68.00
22795;DHT22;11564;50.920;11.612;2022-07-21T00:27:31;24.60;68.00
22795;DHT22;11564;50.920;11.612;2022-07-21T00:29:56;24.50;68.20
22795;DHT22;11564;50.920;11.612;2022-07-21T00:32:22;24.50;68.30
22795;DHT22;11564;50.920;11.612;2022-07-21T00:34:48;24.50;68.50
22795;DHT22;11564;50.920;11.612;2022-07-21T00:37:13;24.50;68.60
22795;DHT22;11564;50.920;11.612;2022-07-21T00:39:39;24.40;68.80
22795;DHT22;11564;50.920;11.612;2022-07-21T00:42:05;24.30;69.00
22795;DHT22;11564;50.920;11.612;2022-07-21T00:44:31;24.30;69.20
22795;DHT22;11564;50.920;11.612;2022-07-21T00:46:56;24.20;69.20
22795;DHT22;11564;50.920;11.612;2022-07-21T00:49:23;24.10;69.50
22795;DHT22;11564;50.920;11.612;2022-07-21T00:51:49;24.10;69.80
22795;DHT22;11564;50.920;11.612;2022-07-21T00:54:16;24.00;69.80
22795;DHT22;11564;50.920;11.612;2022-07-21T00:56:43;23.90;70.20
22795;DHT22;11564;50.920;11.612;2022-07-21T00:59:10;23.80;70.80
22795;DHT22;11564;50.920;11.612;2022-07-21T01:01:35;23.70;71.20
22795;DHT22;11564;50.920;11.612;2022-07-21T01:04:01;23.60;71.40
22795;DHT22;11564;50.920;11.612;2022-07-21T01:06:27;23.60;71.40
22795;DHT22;11564;50.920;11.612;2022-07-21T01:08:53;23.50;71.80
22795;DHT22;11564;50.920;11.612;2022-07-21T01:11:20;23.50;71.80
22795;DHT22;11564;50.920;11.612;2022-07-21T01:13:47;23.40;71.90
22795;DHT22;11564;50.920;11.612;2022-07-21T01:16:15;23.40;72.00
22795;DHT22;11564;50.920;11.612;2022-07-21T01:18:40;23.40;72.10
22795;DHT22;11564;50.920;11.612;2022-07-21T01:21:37;23.40;72.30
22795;DHT22;11564;50.920;11.612;2022-07-21T01:24:04;23.40;72.30
22795;DHT22;11564;50.920;11.612;2022-07-21T01:26:31;23.30;73.20
22795;DHT22;11564;50.920;11.612;2022-07-21T01:29:04;23.20;72.80
22795;DHT22;11564;50.920;11.612;2022-07-21T01:31:30;23.20;72.80
22795;DHT22;11564;50.920;11.612;2022-07-21T01:33:55;23.30;73.00
22795;DHT22;11564;50.920;11.612;2022-07-21T01:36:21;23.20;73.20
22795;DHT22;11564;50.920;11.612;2022-07-21T01:38:46;23.20;73.30
22795;DHT22;11564;50.920;11.612;2022-07-21T01:41:31;23.10;73.40
22795;DHT22;11564;50.920;11.612;2022-07-21T01:44:04;23.10;73.40
22795;DHT22;11564;50.920;11.612;2022-07-21T01:46:32;23.10;73.70
22795;DHT22;11564;50.920;11.612;2022-07-21T01:48:58;23.00;74.50
22795;DHT22;11564;50.920;11.612;2022-07-21T01:51:24;22.90;74.10
22795;DHT22;11564;50.920;11.612;2022-07-21T01:53:51;22.90;74.50
22795;DHT22;11564;50.920;11.612;2022-07-21T01:56:22;22.90;74.60
22795;DHT22;11564;50.920;11.612;2022-07-21T01:58:49;22.80;74.60
22795;DHT22;11564;50.920;11.612;2022-07-21T02:01:19;22.80;74.80
22795;DHT22;11564;50.920;11.612;2022-07-21T02:03:45;22.90;74.90
22795;DHT22;11564;50.920;11.612;2022-07-21T02:06:12;22.90;74.70
22795;DHT22;11564;50.920;11.612;2022-07-21T02:08:38;22.80;74.80
22795;DHT22;11564;50.920;11.612;2022-07-21T02:11:04;22.80;74.90
22795;DHT22;11564;50.920;11.612;2022-07-21T02:13:30;22.80;75.20
22795;DHT22;11564;50.920;11.612;2022-07-21T02:15:56;22.70;75.10
22795;DHT22;11564;50.920;11.612;2022-07-21T02:18:22;22.70;75.30
22795;DHT22;11564;50.920;11.612;2022-07-21T02:20:48;22.70;75.30
22795;DHT22;11564;50.920;11.612;2022-07-21T02:23:16;22.70;76.00
22795;DHT22;11564;50.920;11.612;2022-07-21T02:25:42;22.60;75.90
22795;DHT22;11564;50.920;11.612;2022-07-21T02:28:07;22.60;76.00
22795;DHT22;11564;50.920;11.612;2022-07-21T02:30:33;22.60;75.70
22795;DHT22;11564;50.920;11.612;2022-07-21T02:32:59;22.70;76.50
22795;DHT22;11564;50.920;11.612;2022-07-21T02:35:24;22.70;75.90
22795;DHT22;11564;50.920;11.612;2022-07-21T02:37:50;22.70;75.90
22795;DHT22;11564;50.920;11.612;2022-07-21T02:40:15;22.70;76.10
22795;DHT22;11564;50.920;11.612;2022-07-21T02:42:41;22.70;76.00
22795;DHT22;11564;50.920;11.612;2022-07-21T02:45:09;22.70;76.00
22795;DHT22;11564;50.920;11.612;2022-07-21T02:47:57;22.60;76.30
22795;DHT22;11564;50.920;11.612;2022-07-21T02:50:28;22.60;77.10
22795;DHT22;11564;50.920;11.612;2022-07-21T02:52:58;22.60;77.20
22795;DHT22;11564;50.920;11.612;2022-07-21T02:55:25;22.50;77.90
22795;DHT22;11564;50.920;11.612;2022-07-21T02:58:25;22.50;77.70
22795;DHT22;11564;50.920;11.612;2022-07-21T03:00:56;22.40;77.80
22795;DHT22;11564;50.920;11.612;2022-07-21T03:03:24;22.40;78.20
22795;DHT22;11564;50.920;11.612;2022-07-21T03:05:50;22.30;78.60
22795;DHT22;11564;50.920;11.612;2022-07-21T03:08:17;22.30;78.80
22795;DHT22;11564;50.920;11.612;2022-07-21T03:10:42;22.30;79.40
22795;DHT22;11564;50.920;11.612;2022-07-21T03:13:08;22.30;79.80
22795;DHT22;11564;50.920;11.612;2022-07-21T03:15:35;22.20;80.00
22795;DHT22;11564;50.920;11.612;2022-07-21T03:18:01;22.20;80.00
22795;DHT22;11564;50.920;11.612;2022-07-21T03:20:33;22.20;80.50
22795;DHT22;11564;50.920;11.612;2022-07-21T03:22:59;22.10;80.70
22795;DHT22;11564;50.920;11.612;2022-07-21T03:25:25;22.10;80.90
22795;DHT22;11564;50.920;11.612;2022-07-21T03:27:51;22.00;81.10
22795;DHT22;11564;50.920;11.612;2022-07-21T03:30:17;22.00;81.40
22795;DHT22;11564;50.920;11.612;2022-07-21T03:32:44;22.00;81.80
22795;DHT22;11564;50.920;11.612;2022-07-21T03:35:11;22.00;81.60
22795;DHT22;11564;50.920;11.612;2022-07-21T03:37:50;22.00;81.30
22795;DHT22;11564;50.920;11.612;2022-07-21T03:40:17;21.90;81.50
22795;DHT22;11564;50.920;11.612;2022-07-21T03:42:43;21.90;81.80
22795;DHT22;11564;50.920;11.612;2022-07-21T03:45:10;21.90;82.00
22795;DHT22;11564;50.920;11.612;2022-07-21T03:47:36;21.90;82.30
22795;DHT22;11564;50.920;11.612;2022-07-21T03:50:03;21.90;82.40
22795;DHT22;11564;50.920;11.612;2022-07-21T03:52:29;21.90;82.60
22795;DHT22;11564;50.920;11.612;2022-07-21T03:54:54;21.90;83.10
22795;DHT22;11564;50.920;11.612;2022-07-21T03:57:37;21.90;83.00
22795;DHT22;11564;50.920;11.612;2022-07-21T04:00:06;21.90;83.00
22795;DHT22;11564;50.920;11.612;2022-07-21T04:02:32;21.90;84.90
22795;DHT22;11564;50.920;11.612;2022-07-21T04:04:58;21.80;87.30
22795;DHT22;11564;50.920;11.612;2022-07-21T04:07:23;21.70;88.50
22795;DHT22;11564;50.920;11.612;2022-07-21T04:09:49;21.60;90.10
22795;DHT22;11564;50.920;11.612;2022-07-21T04:12:15;21.50;91.40
22795;DHT22;11564;50.920;11.612;2022-07-21T04:14:40;21.60;92.20
22795;DHT22;11564;50.920;11.612;2022-07-21T04:17:06;21.50;92.80
22795;DHT22;11564;50.920;11.612;2022-07-21T04:19:31;21.40;92.50
22795;DHT22;11564;50.920;11.612;2022-07-21T04:21:57;21.40;93.60
22795;DHT22;11564;50.920;11.612;2022-07-21T04:24:23;21.30;94.70
22795;DHT22;11564;50.920;11.612;2022-07-21T04:26:49;21.50;95.40
22795;DHT22;11564;50.920;11.612;2022-07-21T04:29:14;21.40;96.00
22795;DHT22;11564;50.920;11.612;2022-07-21T04:31:40;21.30;96.60
22795;DHT22;11564;50.920;11.612;2022-07-21T04:34:05;21.30;98.20
22795;DHT22;11564;50.920;11.612;2022-07-21T04:36:31;21.30;99.10
22795;DHT22;11564;50.920;11.612;2022-07-21T04:38:57;21.40;99.70
22795;DHT22;11564;50.920;11.612;2022-07-21T04:41:22;21.40;99.50
22795;DHT22;11564;50.920;11.612;2022-07-21T04:43:48;21.40;99.70
22795;DHT22;11564;50.920;11.612;2022-07-21T04:46:13;21.40;99.90
22795;DHT22;11564;50.920;11.612;2022-07-21T04:48:40;21.40;99.90
22795;DHT22;11564;50.920;11.612;2022-07-21T04:51:06;21.40;99.90
22795;DHT22;11564;50.920;11.612;2022-07-21T04:53:31;21.50;99.90
22795;DHT22;11564;50.920;11.612;2022-07-21T04:55:57;21.60;99.90
22795;DHT22;11564;50.920;11.612;2022-07-21T04:58:22;21.50;99.90
22795;DHT22;11564;50.920;11.612;2022-07-21T05:00:48;21.60;99.90
22795;DHT22;11564;50.920;11.612;2022-07-21T05:03:14;21.60;99.90
22795;DHT22;11564;50.920;11.612;2022-07-21T05:05:39;21.50;99.90
22795;DHT22;11564;50.920;11.612;2022-07-21T05:08:05;21.50;99.90
22795;DHT22;11564;50.920;11.612;2022-07-21T05:10:31;21.60;99.90
22795;DHT22;11564;50.920;11.612;2022-07-21T05:12:57;21.60;99.90
22795;DHT22;11564;50.920;11.612;2022-07-21T05:15:22;21.70;99.90
22795;DHT22;11564;50.920;11.612;2022-07-21T05:17:48;21.70;99.90
22795;DHT22;11564;50.920;11.612;2022-07-21T05:20:14;21.80;99.90
22795;DHT22;11564;50.920;11.612;2022-07-21T05:22:39;21.90;99.90
22795;DHT22;11564;50.920;11.612;2022-07-21T05:25:06;21.90;99.90
22795;DHT22;11564;50.920;11.612;2022-07-21T05:27:32;22.00;99.90
22795;DHT22;11564;50.920;11.612;2022-07-21T05:29:57;22.10;99.90
22795;DHT22;11564;50.920;11.612;2022-07-21T05:32:23;22.10;99.90
22795;DHT22;11564;50.920;11.612;2022-07-21T05:34:49;22.20;99.60
22795;DHT22;11564;50.920;11.612;2022-07-21T05:37:14;22.40;98.60
22795;DHT22;11564;50.920;11.612;2022-07-21T05:39:40;22.40;98.70
22795;DHT22;11564;50.920;11.612;2022-07-21T05:42:06;22.50;98.00
22795;DHT22;11564;50.920;11.612;2022-07-21T05:44:31;22.40;97.50
22795;DHT22;11564;50.920;11.612;2022-07-21T05:46:57;22.30;96.80
22795;DHT22;11564;50.920;11.612;2022-07-21T05:49:23;22.30;96.70
22795;DHT22;11564;50.920;11.612;2022-07-21T05:51:49;22.30;96.80
22795;DHT22;11564;50.920;11.612;2022-07-21T05:54:14;22.20;96.40
22795;DHT22;11564;50.920;11.612;2022-07-21T05:56:40;22.20;96.10
22795;DHT22;11564;50.920;11.612;2022-07-21T05:59:05;22.30;95.80
22795;DHT22;11564;50.920;11.612;2022-07-21T06:01:31;22.30;95.50
22795;DHT22;11564;50.920;11.612;2022-07-21T06:03:57;22.30;94.80
22795;DHT22;11564;50.920;11.612;2022-07-21T06:06:22;22.40;94.40
22795;DHT22;11564;50.920;11.612;2022-07-21T06:08:49;22.50;94.40
22795;DHT22;11564;50.920;11.612;2022-07-21T06:11:17;22.50;94.00
22795;DHT22;11564;50.920;11.612;2022-07-21T06:13:43;22.60;93.80
22795;DHT22;11564;50.920;11.612;2022-07-21T06:16:09;22.50;93.70
22795;DHT22;11564;50.920;11.612;2022-07-21T06:18:36;22.50;93.60
22795;DHT22;11564;50.920;11.612;2022-07-21T06:21:02;22.60;93.40
22795;DHT22;11564;50.920;11.612;2022-07-21T06:23:28;22.60;93.40
22795;DHT22;11564;50.920;11.612;2022-07-21T06:25:53;22.50;93.50
22795;DHT22;11564;50.920;11.612;2022-07-21T06:28:20;22.50;93.60
22795;DHT22;11564;50.920;11.612;2022-07-21T06:30:46;22.50;93.50
22795;DHT22;11564;50.920;11.612;2022-07-21T06:33:12;22.50;93.50
22795;DHT22;11564;50.920;11.612;2022-07-21T06:35:38;22.50;93.60
22795;DHT22;11564;50.920;11.612;2022-07-21T06:38:03;22.60;93.30
22795;DHT22;11564;50.920;11.612;2022-07-21T06:40:29;22.70;93.80
22795;DHT22;11564;50.920;11.612;2022-07-21T06:42:55;22.80;92.60
22795;DHT22;11564;50.920;11.612;2022-07-21T06:45:22;22.90;93.20
22795;DHT22;11564;50.920;11.612;2022-07-21T06:47:47;22.90;94.00
22795;DHT22;11564;50.920;11.612;2022-07-21T06:50:13;23.00;94.20
22795;DHT22;11564;50.920;11.612;2022-07-21T06:52:39;23.00;93.90
22795;DHT22;11564;50.920;11.612;2022-07-21T06:55:05;22.90;93.80
22795;DHT22;11564;50.920;11.612;2022-07-21T06:57:36;22.90;95.10
22795;DHT22;11564;50.920;11.612;2022-07-21T07:00:06;23.00;95.10
22795;DHT22;11564;50.920;11.612;2022-07-21T07:02:33;23.00;94.80
22795;DHT22;11564;50.920;11.612;2022-07-21T07:04:58;23.00;95.10
22795;DHT22;11564;50.920;11.612;2022-07-21T07:07:24;23.10;95.00
22795;DHT22;11564;50.920;11.612;2022-07-21T07:09:50;22.90;94.20
22795;DHT22;11564;50.920;11.612;2022-07-21T07:12:15;22.80;94.70
22795;DHT22;11564;50.920;11.612;2022-07-21T07:14:41;22.70;95.10
22795;DHT22;11564;50.920;11.612;2022-07-21T07:17:07;22.50;95.50
22795;DHT22;11564;50.920;11.612;2022-07-21T07:19:32;22.60;96.00
22795;DHT22;11564;50.920;11.612;2022-07-21T07:21:58;22.50;95.90
22795;DHT22;11564;50.920;11.612;2022-07-21T07:24:24;22.50;96.00
22795;DHT22;11564;50.920;11.612;2022-07-21T07:26:50;22.50;96.10
22795;DHT22;11564;50.920;11.612;2022-07-21T07:29:15;22.70;96.40
22795;DHT22;11564;50.920;11.612;2022-07-21T07:31:41;23.00;96.30
22795;DHT22;11564;50.920;11.612;2022-07-21T07:34:07;23.00;96.10
22795;DHT22;11564;50.920;11.612;2022-07-21T07:36:33;23.10;94.20
22795;DHT22;11564;50.920;11.612;2022-07-21T07:39:00;23.20;94.50
22795;DHT22;11564;50.920;11.612;2022-07-21T07:41:27;23.30;94.10
22795;DHT22;11564;50.920;11.612;2022-07-21T07:43:54;23.40;93.90
22795;DHT22;11564;50.920;11.612;2022-07-21T07:46:20;23.70;94.00
22795;DHT22;11564;50.920;11.612;2022-07-21T07:48:46;24.00;94.00
22795;DHT22;11564;50.920;11.612;2022-07-21T07:51:13;24.10;92.90
22795;DHT22;11564;50.920;11.612;2022-07-21T07:53:39;24.00;92.60
22795;DHT22;11564;50.920;11.612;2022-07-21T07:56:05;23.90;93.20
22795;DHT22;11564;50.920;11.612;2022-07-21T07:58:31;24.00;92.60
22795;DHT22;11564;50.920;11.612;2022-07-21T08:00:57;24.00;92.50
22795;DHT22;11564;50.920;11.612;2022-07-21T08:03:24;24.10;92.80
22795;DHT22;11564;50.920;11.612;2022-07-21T08:05:51;24.10;92.10
22795;DHT22;11564;50.920;11.612;2022-07-21T08:08:17;24.10;92.10
22795;DHT22;11564;50.920;11.612;2022-07-21T08:10:44;24.10;92.60
22795;DHT22;11564;50.920;11.612;2022-07-21T08:13:15;24.00;92.30
22795;DHT22;11564;50.920;11.612;2022-07-21T08:15:43;23.80;92.30
22795;DHT22;11564;50.920;11.612;2022-07-21T08:18:09;23.70;92.60
22795;DHT22;11564;50.920;11.612;2022-07-21T08:20:36;23.80;92.60
22795;DHT22;11564;50.920;11.612;2022-07-21T08:23:02;24.00;92.30
22795;DHT22;11564;50.920;11.612;2022-07-21T08:25:28;24.00;92.30
22795;DHT22;11564;50.920;11.612;2022-07-21T08:27:54;24.00;92.20
22795;DHT22;11564;50.920;11.612;2022-07-21T08:30:20;24.00;92.30
22795;DHT22;11564;50.920;11.612;2022-07-21T08:32:45;23.80;92.40
22795;DHT22;11564;50.920;11.612;2022-07-21T08:35:11;24.20;92.40
22795;DHT22;11564;50.920;11.612;2022-07-21T08:37:38;24.50;92.10
22795;DHT22;11564;50.920;11.612;2022-07-21T08:40:05;24.70;91.40
22795;DHT22;11564;50.920;11.612;2022-07-21T08:42:32;24.90;91.30
22795;DHT22;11564;50.920;11.612;2022-07-21T08:44:57;25.10;91.00
22795;DHT22;11564;50.920;11.612;2022-07-21T08:47:24;25.20;90.90
22795;DHT22;11564;50.920;11.612;2022-07-21T08:49:51;25.50;90.70
22795;DHT22;11564;50.920;11.612;2022-07-21T08:52:17;25.20;90.60
22795;DHT22;11564;50.920;11.612;2022-07-21T08:54:43;24.90;90.60
22795;DHT22;11564;50.920;11.612;2022-07-21T08:57:09;24.80;90.70
22795;DHT22;11564;50.920;11.612;2022-07-21T08:59:35;24.30;91.10
22795;DHT22;11564;50.920;11.612;2022-07-21T09:02:00;24.20;91.10
22795;DHT22;11564;50.920;11.612;2022-07-21T09:04:34;24.30;90.60
22795;DHT22;11564;50.920;11.612;2022-07-21T09:07:05;24.80;90.70
22795;DHT22;11564;50.920;11.612;2022-07-21T09:09:33;25.00;90.20
22795;DHT22;11564;50.920;11.612;2022-07-21T09:12:00;25.30;88.90
22795;DHT22;11564;50.920;11.612;2022-07-21T09:14:29;25.20;88.60
22795;DHT22;11564;50.920;11.612;2022-07-21T09:16:57;25.20;87.60
22795;DHT22;11564;50.920;11.612;2022-07-21T09:19:24;25.20;86.90
22795;DHT22;11564;50.920;11.612;2022-07-21T09:21:52;25.40;86.60
22795;DHT22;11564;50.920;11.612;2022-07-21T09:27:00;26.10;85.30
22795;DHT22;11564;50.920;11.612;2022-07-21T09:29:43;26.30;83.80
22795;DHT22;11564;50.920;11.612;2022-07-21T09:34:51;27.10;82.20
22795;DHT22;11564;50.920;11.612;2022-07-21T09:37:18;27.40;80.50
22795;DHT22;11564;50.920;11.612;2022-07-21T09:39:55;27.40;78.30
22795;DHT22;11564;50.920;11.612;2022-07-21T09:42:24;27.50;79.30
22795;DHT22;11564;50.920;11.612;2022-07-21T09:44:53;27.80;78.80
22795;DHT22;11564;50.920;11.612;2022-07-21T09:47:23;28.20;78.00
22795;DHT22;11564;50.920;11.612;2022-07-21T09:49:49;28.20;77.10
22795;DHT22;11564;50.920;11.612;2022-07-21T09:52:32;28.20;77.50
22795;DHT22;11564;50.920;11.612;2022-07-21T09:55:07;28.40;77.20
22795;DHT22;11564;50.920;11.612;2022-07-21T09:57:33;28.10;75.50
22795;DHT22;11564;50.920;11.612;2022-07-21T09:59:59;27.80;76.80
22795;DHT22;11564;50.920;11.612;2022-07-21T10:02:28;27.70;78.30
22795;DHT22;11564;50.920;11.612;2022-07-21T10:05:02;28.10;76.80
22795;DHT22;11564;50.920;11.612;2022-07-21T10:07:28;28.50;74.90
22795;DHT22;11564;50.920;11.612;2022-07-21T10:09:56;28.40;74.90
22795;DHT22;11564;50.920;11.612;2022-07-21T10:12:23;28.40;75.60
22795;DHT22;11564;50.920;11.612;2022-07-21T10:14:49;28.60;75.00
22795;DHT22;11564;50.920;11.612;2022-07-21T10:17:16;28.60;75.40
22795;DHT22;11564;50.920;11.612;2022-07-21T10:25:39;27.90;74.80
22795;DHT22;11564;50.920;11.612;2022-07-21T10:30:39;27.40;78.00
22795;DHT22;11564;50.920;11.612;2022-07-21T10:33:05;27.80;77.80
22795;DHT22;11564;50.920;11.612;2022-07-21T10:35:32;27.50;77.00
22795;DHT22;11564;50.920;11.612;2022-07-21T10:37:59;27.90;77.90
22795;DHT22;11564;50.920;11.612;2022-07-21T10:45:34;27.90;76.00
22795;DHT22;11564;50.920;11.612;2022-07-21T10:48:02;28.00;76.20
22795;DHT22;11564;50.920;11.612;2022-07-21T10:50:41;28.30;75.00
22795;DHT22;11564;50.920;11.612;2022-07-21T10:53:14;28.30;75.60
22795;DHT22;11564;50.920;11.612;2022-07-21T10:55:54;28.80;71.80
22795;DHT22;11564;50.920;11.612;2022-07-21T10:58:27;29.40;70.70
22795;DHT22;11564;50.920;11.612;2022-07-21T11:03:39;30.20;64.20
22795;DHT22;11564;50.920;11.612;2022-07-21T11:08:42;30.90;61.50
22795;DHT22;11564;50.920;11.612;2022-07-21T11:11:20;30.40;59.40
22795;DHT22;11564;50.920;11.612;2022-07-21T11:22:14;28.50;62.40
22795;DHT22;11564;50.920;11.612;2022-07-21T11:24:47;28.70;61.30
22795;DHT22;11564;50.920;11.612;2022-07-21T11:27:15;29.20;61.20
22795;DHT22;11564;50.920;11.612;2022-07-21T11:29:43;29.50;60.00
22795;DHT22;11564;50.920;11.612;2022-07-21T11:32:10;29.50;58.50
22795;DHT22;11564;50.920;11.612;2022-07-21T11:37:18;29.00;58.90
22795;DHT22;11564;50.920;11.612;2022-07-21T11:39:44;29.10;59.20
22795;DHT22;11564;50.920;11.612;2022-07-21T11:42:14;28.90;58.40
22795;DHT22;11564;50.920;11.612;2022-07-21T11:44:41;28.90;58.70
22795;DHT22;11564;50.920;11.612;2022-07-21T11:47:09;29.40;58.20
22795;DHT22;11564;50.920;11.612;2022-07-21T11:49:35;29.50;58.50
22795;DHT22;11564;50.920;11.612;2022-07-21T11:52:03;29.70;58.20
22795;DHT22;11564;50.920;11.612;2022-07-21T11:54:43;30.00;57.50
22795;DHT22;11564;50.920;11.612;2022-07-21T11:57:10;30.30;57.10
22795;DHT22;11564;50.920;11.612;2022-07-21T11:59:37;30.30;55.40
22795;DHT22;11564;50.920;11.612;2022-07-21T12:04:48;30.30;55.20
22795;DHT22;11564;50.920;11.612;2022-07-21T12:07:26;30.40;55.60
22795;DHT22;11564;50.920;11.612;2022-07-21T12:09:56;29.80;57.10
22795;DHT22;11564;50.920;11.612;2022-07-21T12:12:29;29.40;57.70
22795;DHT22;11564;50.920;11.612;2022-07-21T12:14:55;29.50;58.00
22795;DHT22;11564;50.920;11.612;2022-07-21T12:20:15;29.70;57.90
22795;DHT22;11564;50.920;11.612;2022-07-21T12:22:48;30.20;57.00
22795;DHT22;11564;50.920;11.612;2022-07-21T12:25:16;30.20;55.60
22795;DHT22;11564;50.920;11.612;2022-07-21T12:27:45;30.30;55.70
22795;DHT22;11564;50.920;11.612;2022-07-21T12:33:06;30.50;53.40
22795;DHT22;11564;50.920;11.612;2022-07-21T12:35:32;30.10;53.30
22795;DHT22;11564;50.920;11.612;2022-07-21T12:40:34;30.30;52.70
22795;DHT22;11564;50.920;11.612;2022-07-21T12:43:15;29.70;53.00
22795;DHT22;11564;50.920;11.612;2022-07-21T12:48:18;29.80;52.80
22795;DHT22;11564;50.920;11.612;2022-07-21T12:51:03;30.10;50.50
22795;DHT22;11564;50.920;11.612;2022-07-21T12:53:31;30.20;50.50
22795;DHT22;11564;50.920;11.612;2022-07-21T12:55:57;30.10;51.40
22795;DHT22;11564;50.920;11.612;2022-07-21T12:58:23;30.10;51.70
22795;DHT22;11564;50.920;11.612;2022-07-21T13:00:49;30.40;52.20
22795;DHT22;11564;50.920;11.612;2022-07-21T13:03:15;30.90;50.00
22795;DHT22;11564;50.920;11.612;2022-07-21T13:05:40;30.80;49.90
22795;DHT22;11564;50.920;11.612;2022-07-21T13:08:06;31.40;49.80
22795;DHT22;11564;50.920;11.612;2022-07-21T13:10:32;31.20;49.00
22795;DHT22;11564;50.920;11.612;2022-07-21T13:12:57;31.10;47.90
22795;DHT22;11564;50.920;11.612;2022-07-21T13:15:23;31.00;48.00
22795;DHT22;11564;50.920;11.612;2022-07-21T13:17:49;30.70;49.30
22795;DHT22;11564;50.920;11.612;2022-07-21T13:20:15;30.80;47.70
22795;DHT22;11564;50.920;11.612;2022-07-21T13:22:41;30.80;47.70
22795;DHT22;11564;50.920;11.612;2022-07-21T13:25:08;32.50;47.00
22795;DHT22;11564;50.920;11.612;2022-07-21T13:27:34;34.80;43.60
22795;DHT22;11564;50.920;11.612;2022-07-21T13:30:00;36.80;41.30
22795;DHT22;11564;50.920;11.612;2022-07-21T13:32:26;37.70;40.30
22795;DHT22;11564;50.920;11.612;2022-07-21T13:34:52;36.90;40.50
22795;DHT22;11564;50.920;11.612;2022-07-21T13:37:17;38.70;38.20
22795;DHT22;11564;50.920;11.612;2022-07-21T13:39:43;40.00;36.10
22795;DHT22;11564;50.920;11.612;2022-07-21T13:42:08;37.00;38.50
22795;DHT22;11564;50.920;11.612;2022-07-21T13:44:35;34.10;42.30
22795;DHT22;11564;50.920;11.612;2022-07-21T13:47:01;34.90;42.10
22795;DHT22;11564;50.920;11.612;2022-07-21T13:49:26;35.50;40.60
22795;DHT22;11564;50.920;11.612;2022-07-21T13:51:52;37.40;38.50
22795;DHT22;11564;50.920;11.612;2022-07-21T13:54:18;39.10;36.70
22795;DHT22;11564;50.920;11.612;2022-07-21T13:56:43;40.00;34.40
22795;DHT22;11564;50.920;11.612;2022-07-21T13:59:09;36.70;38.10
22795;DHT22;11564;50.920;11.612;2022-07-21T14:01:34;35.40;40.80
22795;DHT22;11564;50.920;11.612;2022-07-21T14:04:00;35.10;41.90
22795;DHT22;11564;50.920;11.612;2022-07-21T14:06:26;37.10;39.10
22795;DHT22;11564;50.920;11.612;2022-07-21T14:08:51;39.30;36.40
22795;DHT22;11564;50.920;11.612;2022-07-21T14:11:17;40.70;35.20
22795;DHT22;11564;50.920;11.612;2022-07-21T14:13:43;41.30;34.80
22795;DHT22;11564;50.920;11.612;2022-07-21T14:16:09;39.50;35.50
22795;DHT22;11564;50.920;11.612;2022-07-21T14:18:35;39.10;36.10
22795;DHT22;11564;50.920;11.612;2022-07-21T14:21:00;38.10;37.30
22795;DHT22;11564;50.920;11.612;2022-07-21T14:23:26;38.00;37.90
22795;DHT22;11564;50.920;11.612;2022-07-21T14:25:53;37.40;38.10
22795;DHT22;11564;50.920;11.612;2022-07-21T14:28:19;35.40;40.70
22795;DHT22;11564;50.920;11.612;2022-07-21T14:30:45;34.50;42.20
22795;DHT22;11564;50.920;11.612;2022-07-21T14:33:10;34.50;41.80
22795;DHT22;11564;50.920;11.612;2022-07-21T14:35:36;36.10;40.40
22795;DHT22;11564;50.920;11.612;2022-07-21T14:38:02;37.90;37.80
22795;DHT22;11564;50.920;11.612;2022-07-21T14:40:28;40.10;36.30
22795;DHT22;11564;50.920;11.612;2022-07-21T14:42:54;39.80;35.00
22795;DHT22;11564;50.920;11.612;2022-07-21T14:45:21;38.80;36.10
22795;DHT22;11564;50.920;11.612;2022-07-21T14:47:47;36.80;38.20
22795;DHT22;11564;50.920;11.612;2022-07-21T14:50:14;33.80;41.20
22795;DHT22;11564;50.920;11.612;2022-07-21T14:52:40;34.10;42.10
22795;DHT22;11564;50.920;11.612;2022-07-21T14:55:07;36.00;39.50
22795;DHT22;11564;50.920;11.612;2022-07-21T14:57:34;35.90;39.30
22795;DHT22;11564;50.920;11.612;2022-07-21T14:59:59;36.20;39.50
22795;DHT22;11564;50.920;11.612;2022-07-21T15:02:25;35.00;39.50
22795;DHT22;11564;50.920;11.612;2022-07-21T15:04:50;35.70;38.60
22795;DHT22;11564;50.920;11.612;2022-07-21T15:07:16;34.60;39.80
22795;DHT22;11564;50.920;11.612;2022-07-21T15:09:43;33.70;41.90
22795;DHT22;11564;50.920;11.612;2022-07-21T15:12:08;36.30;39.60
22795;DHT22;11564;50.920;11.612;2022-07-21T15:14:36;36.00;39.00
22795;DHT22;11564;50.920;11.612;2022-07-21T15:17:02;35.40;39.40
22795;DHT22;11564;50.920;11.612;2022-07-21T15:19:27;33.30;40.90
22795;DHT22;11564;50.920;11.612;2022-07-21T15:21:53;33.60;41.20
22795;DHT22;11564;50.920;11.612;2022-07-21T15:24:18;32.70;41.80
22795;DHT22;11564;50.920;11.612;2022-07-21T15:26:44;33.10;42.40
22795;DHT22;11564;50.920;11.612;2022-07-21T15:29:10;33.50;41.80
22795;DHT22;11564;50.920;11.612;2022-07-21T15:31:36;32.70;41.80
22795;DHT22;11564;50.920;11.612;2022-07-21T15:34:02;31.90;43.20
22795;DHT22;11564;50.920;11.612;2022-07-21T15:36:28;33.00;42.90
22795;DHT22;11564;50.920;11.612;2022-07-21T15:38:55;32.30;43.60
22795;DHT22;11564;50.920;11.612;2022-07-21T15:41:23;31.90;44.90
22795;DHT22;11564;50.920;11.612;2022-07-21T15:43:49;32.80;43.20
22795;DHT22;11564;50.920;11.612;2022-07-21T15:46:14;34.60;42.00
22795;DHT22;11564;50.920;11.612;2022-07-21T15:48:40;36.60;39.50
22795;DHT22;11564;50.920;11.612;2022-07-21T15:51:05;37.90;37.80
22795;DHT22;11564;50.920;11.612;2022-07-21T15:53:31;38.40;36.40
22795;DHT22;11564;50.920;11.612;2022-07-21T15:55:57;35.20;38.90
22795;DHT22;11564;50.920;11.612;2022-07-21T15:58:23;32.90;42.10
22795;DHT22;11564;50.920;11.612;2022-07-21T16:00:48;32.80;43.10
22795;DHT22;11564;50.920;11.612;2022-07-21T16:03:14;34.50;41.40